createdAt,value
2023-03-21T00:03:34.298Z,8.33
2023-03-21T00:08:39.821Z,8.36
2023-03-21T00:13:45.498Z,8.40
2023-03-21T00:18:53.543Z,8.47
2023-03-21T00:24:00.579Z,8.52
2023-03-21T00:29:06.515Z,8.50
2023-03-21T00:39:18.503Z,8.54
2023-03-21T00:44:25.671Z,8.53
2023-03-21T00:49:38.178Z,8.52
2023-03-21T00:54:43.853Z,8.51
2023-03-21T00:59:49.201Z,8.51
2023-03-21T01:04:54.876Z,8.48
2023-03-21T01:10:00.391Z,8.44
2023-03-21T01:15:07.158Z,8.43
2023-03-21T01:20:14.533Z,8.42
2023-03-21T01:25:22.694Z,8.37
2023-03-21T01:30:33.994Z,8.29
2023-03-21T01:35:50.391Z,8.24
2023-03-21T01:41:08.640Z,8.22
2023-03-21T01:46:45.407Z,8.16
2023-03-21T01:52:29.802Z,8.08
2023-03-21T01:58:04.272Z,8.04
2023-03-21T02:03:23.679Z,7.99
2023-03-21T02:09:04.623Z,7.93
2023-03-21T02:14:26.585Z,7.86
2023-03-21T02:20:13.284Z,7.85
2023-03-21T02:25:43.827Z,7.86
2023-03-21T02:31:14.542Z,7.89
2023-03-21T02:36:34.124Z,7.88
2023-03-21T02:41:47.606Z,7.92
2023-03-21T02:47:06.046Z,7.96
2023-03-21T02:52:35.473Z,7.98
2023-03-21T02:57:52.734Z,7.98
2023-03-21T03:03:08.780Z,7.99
2023-03-21T03:08:43.252Z,7.99
2023-03-21T03:14:22.730Z,7.94
2023-03-21T03:19:49.704Z,7.90
2023-03-21T03:25:12.585Z,7.90
2023-03-21T03:30:39.289Z,7.89
2023-03-21T03:36:02.582Z,7.86
2023-03-21T03:41:19.525Z,7.88
2023-03-21T03:46:41.256Z,7.88
2023-03-21T03:51:53.088Z,7.86
2023-03-21T03:57:12.526Z,7.84
2023-03-21T04:02:20.422Z,7.84
2023-03-21T04:07:27.970Z,7.84
2023-03-21T04:12:35.880Z,7.82
2023-03-21T04:17:59.998Z,7.79
2023-03-21T04:23:06.233Z,7.79
2023-03-21T04:28:12.078Z,7.78
2023-03-21T04:33:25.992Z,7.74
2023-03-21T04:38:34.875Z,7.74
2023-03-21T04:43:41.714Z,7.78
2023-03-21T04:48:47.651Z,7.76
2023-03-21T04:53:57.435Z,7.74
2023-03-21T04:59:08.279Z,7.75
2023-03-21T05:04:14.449Z,7.76
2023-03-21T05:09:22.252Z,7.77
2023-03-21T05:14:28.499Z,7.76
2023-03-21T05:19:40.812Z,7.77
2023-03-21T05:24:50.470Z,7.83
2023-03-21T05:30:14.327Z,7.89
2023-03-21T05:35:20.904Z,7.87
2023-03-21T05:40:26.632Z,7.88
2023-03-21T05:45:34.934Z,7.88
2023-03-21T05:50:41.589Z,7.89
2023-03-21T05:55:54.713Z,7.96
2023-03-21T06:01:19.266Z,8.03
2023-03-21T06:06:30.493Z,8.12
2023-03-21T06:11:42.158Z,8.17
2023-03-21T06:17:06.281Z,8.16
2023-03-21T06:22:14.844Z,8.13
2023-03-21T06:27:20.836Z,8.17
2023-03-21T06:32:36.245Z,8.12
2023-03-21T06:37:49.454Z,8.13
2023-03-21T06:42:55.904Z,8.13
2023-03-21T06:48:01.637Z,8.17
2023-03-21T06:53:24.523Z,8.20
2023-03-21T06:58:56.107Z,8.24
2023-03-21T07:04:15.845Z,8.27
2023-03-21T07:09:24.645Z,8.26
2023-03-21T07:14:32.032Z,8.21
2023-03-21T07:19:37.629Z,8.20
2023-03-21T07:24:43.097Z,8.29
2023-03-21T07:29:50.431Z,8.42
2023-03-21T07:34:56.676Z,8.61
2023-03-21T07:40:02.144Z,8.98
2023-03-21T07:45:10.823Z,9.24
2023-03-21T07:50:17.507Z,9.51
2023-03-21T07:55:23.480Z,9.87
2023-03-21T08:00:29.292Z,10.17
2023-03-21T08:05:38.518Z,10.14
2023-03-21T08:10:45.551Z,10.16
2023-03-21T08:15:51.038Z,10.23
2023-03-21T08:20:58.422Z,10.12
2023-03-21T08:26:03.961Z,9.93
2023-03-21T08:31:11.800Z,9.80
2023-03-21T08:36:17.424Z,9.85
2023-03-21T08:41:24.561Z,10.01
2023-03-21T08:46:30.981Z,10.55
2023-03-21T08:51:38.091Z,10.84
2023-03-21T08:56:43.507Z,10.80
2023-03-21T09:01:49.522Z,11.09
2023-03-21T09:06:56.339Z,11.24
2023-03-21T09:12:01.945Z,11.08
2023-03-21T09:17:07.519Z,10.88
2023-03-21T09:22:14.285Z,10.63
2023-03-21T09:27:25.457Z,10.61
2023-03-21T09:32:29.856Z,10.42
2023-03-21T09:37:38.284Z,10.10
2023-03-21T09:42:52.420Z,10.00
2023-03-21T09:47:58.340Z,9.96
2023-03-21T09:53:10.595Z,10.12
2023-03-21T09:58:26.174Z,10.47
2023-03-21T10:03:36.396Z,10.74
2023-03-21T10:08:43.276Z,10.86
2023-03-21T10:13:53.697Z,10.75
2023-03-21T10:19:02.824Z,10.72
2023-03-21T10:24:12.076Z,10.80
2023-03-21T10:29:22.462Z,10.88
2023-03-21T10:34:33.019Z,10.87
2023-03-21T10:39:40.204Z,10.76
2023-03-21T10:44:49.444Z,10.66
2023-03-21T10:50:11.319Z,10.62
2023-03-21T10:55:25.852Z,10.72
2023-03-21T11:00:38.721Z,10.96
2023-03-21T11:05:44.936Z,11.12
2023-03-21T11:10:55.196Z,11.28
2023-03-21T11:16:08.150Z,11.51
2023-03-21T11:21:15.590Z,11.54
2023-03-21T11:26:27.686Z,11.29
2023-03-21T11:31:44.898Z,11.16
2023-03-21T11:36:53.191Z,11.34
2023-03-21T11:41:58.871Z,11.76
2023-03-21T11:47:04.511Z,12.28
2023-03-21T11:52:23.356Z,12.75
2023-03-21T11:57:39.954Z,13.19
2023-03-21T12:03:17.999Z,13.41
2023-03-21T12:08:40.220Z,13.61
2023-03-21T12:13:58.701Z,13.64
2023-03-21T12:19:18.237Z,13.49
2023-03-21T12:24:26.907Z,13.10
2023-03-21T12:29:46.231Z,12.59
2023-03-21T12:35:08.396Z,12.14
2023-03-21T12:40:22.652Z,11.83
2023-03-21T12:45:45.748Z,11.82
2023-03-21T12:50:54.734Z,12.04
2023-03-21T12:56:05.213Z,12.37
2023-03-21T13:01:12.966Z,12.71
2023-03-21T13:06:22.730Z,12.84
2023-03-21T13:11:31.370Z,12.90
2023-03-21T13:16:41.186Z,12.77
2023-03-21T13:21:57.241Z,12.12
2023-03-21T13:27:07.140Z,11.69
2023-03-21T13:32:23.255Z,11.38
2023-03-21T13:37:32.897Z,11.13
2023-03-21T13:42:45.973Z,10.92
2023-03-21T13:47:56.738Z,10.82
2023-03-21T13:53:23.911Z,10.87
2023-03-21T13:58:38.028Z,11.07
2023-03-21T14:03:44.797Z,11.35
2023-03-21T14:08:50.931Z,11.64
2023-03-21T14:13:59.223Z,12.30
2023-03-21T14:19:06.490Z,13.02
2023-03-21T14:24:16.635Z,13.36
2023-03-21T14:29:31.616Z,13.49
2023-03-21T14:34:38.743Z,13.59
2023-03-21T14:39:44.250Z,13.24
2023-03-21T14:44:55.390Z,12.90
2023-03-21T14:50:02.016Z,12.76
2023-03-21T14:55:16.238Z,12.64
2023-03-21T15:00:26.453Z,12.49
2023-03-21T15:05:34.731Z,11.98
2023-03-21T15:10:40.379Z,11.52
2023-03-21T15:15:46.666Z,11.18
2023-03-21T15:20:53.596Z,10.86
2023-03-21T15:26:02.110Z,10.64
2023-03-21T15:31:17.562Z,10.54
2023-03-21T15:36:26.390Z,10.44
2023-03-21T15:41:33.260Z,10.33
2023-03-21T15:46:48.252Z,10.20
2023-03-21T15:51:57.648Z,10.13
2023-03-21T15:57:09.614Z,10.08
2023-03-21T16:02:19.864Z,10.04
2023-03-21T16:07:26.570Z,10.04
2023-03-21T16:12:34.105Z,10.08
2023-03-21T16:17:41.754Z,10.08
2023-03-21T16:22:47.609Z,9.95
2023-03-21T16:27:53.053Z,9.80
2023-03-21T16:32:58.911Z,9.62
2023-03-21T16:38:05.503Z,9.43
2023-03-21T16:43:11.902Z,9.19
2023-03-21T16:48:18.725Z,8.89
2023-03-21T16:53:24.245Z,8.60
2023-03-21T16:58:29.828Z,8.25
2023-03-21T17:03:35.801Z,7.90
2023-03-21T17:08:41.660Z,7.55
2023-03-21T17:13:47.285Z,7.26
2023-03-21T17:18:53.001Z,6.95
2023-03-21T17:23:58.621Z,6.76
2023-03-21T17:29:05.356Z,6.65
2023-03-21T17:34:11.168Z,6.46
2023-03-21T17:39:22.611Z,6.11
2023-03-21T17:44:28.490Z,5.83
2023-03-21T17:49:33.974Z,5.61
2023-03-21T17:54:39.833Z,5.42
2023-03-21T17:59:46.332Z,5.26
2023-03-21T18:04:52.123Z,5.24
2023-03-21T18:09:58.229Z,5.18
2023-03-21T18:15:04.125Z,4.95
2023-03-21T18:20:14.566Z,4.77
2023-03-21T18:25:21.075Z,4.59
2023-03-21T18:30:50.158Z,4.54
2023-03-21T18:35:59.455Z,4.58
2023-03-21T18:41:07.684Z,4.58
2023-03-21T18:46:13.897Z,4.61
2023-03-21T18:51:20.268Z,4.43
2023-03-21T19:01:54.353Z,4.13
2023-03-21T19:07:00.213Z,3.98
2023-03-21T19:12:06.440Z,3.84
2023-03-21T19:18:19.340Z,3.73
2023-03-21T19:22:37.840Z,3.68
2023-03-21T19:27:44.548Z,3.54
2023-03-21T19:32:49.987Z,3.31
2023-03-21T19:37:55.799Z,3.21
2023-03-21T19:43:18.550Z,3.29
2023-03-21T19:48:28.055Z,3.38
2023-03-21T19:53:33.625Z,3.40
2023-03-21T19:58:39.078Z,3.29
2023-03-21T20:03:46.057Z,3.15
2023-03-21T20:14:17.567Z,2.94
2023-03-21T20:19:24.137Z,2.93
2023-03-21T20:24:30.416Z,2.97
2023-03-21T20:35:19.162Z,2.63
2023-03-21T20:40:26.779Z,2.67
2023-03-21T20:45:32.873Z,2.88
2023-03-21T20:50:39.558Z,3.03
2023-03-21T20:55:46.089Z,3.15
2023-03-21T21:00:52.606Z,3.35
2023-03-21T21:05:58.461Z,3.56
2023-03-21T21:11:53.492Z,3.60
2023-03-21T21:16:29.571Z,3.55
2023-03-21T21:21:35.107Z,3.49
2023-03-21T21:26:46.325Z,3.37
2023-03-21T21:31:52.193Z,3.25
2023-03-21T21:36:57.757Z,3.13
2023-03-21T21:42:03.781Z,3.01
2023-03-21T21:47:09.216Z,2.75
2023-03-21T21:52:22.025Z,2.61
2023-03-21T21:57:27.609Z,2.46
2023-03-21T22:02:33.144Z,2.24
2023-03-21T22:07:39.243Z,2.10
2023-03-21T22:12:44.760Z,2.02
2023-03-21T22:17:50.451Z,1.83
2023-03-21T22:22:56.848Z,1.73
2023-03-21T22:28:02.595Z,1.62
2023-03-21T22:33:09.924Z,1.58
2023-03-21T22:38:18.094Z,1.50
2023-03-21T22:43:23.732Z,1.35
2023-03-21T22:48:32.444Z,1.32
2023-03-21T22:53:37.897Z,1.32
2023-03-21T22:58:43.245Z,1.41
2023-03-21T23:03:48.807Z,1.42
2023-03-21T23:08:54.283Z,1.33
2023-03-21T23:14:07.753Z,1.20
2023-03-21T23:19:13.984Z,1.09
2023-03-21T23:24:20.052Z,0.99
2023-03-21T23:29:25.510Z,0.92
2023-03-21T23:34:32.380Z,0.91
2023-03-21T23:39:38.563Z,0.92
2023-03-21T23:44:44.331Z,0.82
2023-03-21T23:49:52.869Z,0.74
2023-03-21T23:54:58.281Z,0.66
